Time;durP1;ratioP1;P1;durP2;ratioP2;P2;SDS_P1;SDS_P2;PMS_P1;PMS_P2;Temp;Humidity;BMP_temperature;BMP_pressure;BME280_temperature;BME280_humidity;BME280_pressure;Samples;Min_cycle;Max_cycle;Signal;HPM_P1;HPM_P2
2022/11/17 00:01:42;;;;;;;30.77;16.73;;;7.80;99.90;;;;;;6275876;22;20042;-86
2022/11/17 00:04:07;;;;;;;31.13;16.47;;;7.70;99.90;;;;;;6277194;22;20098;-86
2022/11/17 00:06:33;;;;;;;30.30;16.63;;;7.80;99.90;;;;;;6275664;22;20012;-86
2022/11/17 00:08:59;;;;;;;32.03;17.40;;;7.70;99.90;;;;;;6276051;22;20395;-86
2022/11/17 00:14:31;;;;;;;28.90;16.40;;;8.10;99.90;;;;;;6273388;22;20011;-87
2022/11/17 00:14:35;;;;;;;26.23;15.23;;;8.90;99.90;;;;;;6276701;22;20051;-86
2022/11/17 00:17:06;;;;;;;27.77;15.80;;;7.60;99.90;;;;;;6277645;22;20431;-87
2022/11/17 00:22:16;;;;;;;;;;;7.80;99.90;;;;;;6277729;22;20027;-87
2022/11/17 00:24:42;;;;;;;31.27;16.17;;;8.60;99.90;;;;;;6281826;22;19899;-86
2022/11/17 00:27:07;;;;;;;26.43;15.57;;;7.80;99.90;;;;;;6279349;22;20015;-87
2022/11/17 00:29:33;;;;;;;28.75;15.30;;;7.80;99.90;;;;;;6276566;22;20023;-86
2022/11/17 00:34:43;;;;;;;;;;;7.80;99.90;;;;;;6276086;22;20439;-87
2022/11/17 00:37:10;;;;;;;26.70;15.37;;;8.40;99.90;;;;;;6275411;22;20134;-86
2022/11/17 00:39:35;;;;;;;25.50;15.47;;;7.80;99.90;;;;;;6274465;22;20443;-86
2022/11/17 00:42:10;;;;;;;26.40;14.15;;;7.90;99.90;;;;;;6276846;22;20019;-86
2022/11/17 00:44:35;;;;;;;26.48;15.10;;;7.80;99.90;;;;;;6275670;22;20051;-86
2022/11/17 00:47:13;;;;;;;26.83;14.87;;;7.60;99.90;;;;;;6274467;22;20466;-86
2022/11/17 00:49:39;;;;;;;25.30;15.10;;;8.10;99.90;;;;;;6277289;22;20104;-86
2022/11/17 00:52:20;;;;;;;23.13;14.23;;;7.80;99.90;;;;;;6277618;22;20020;-86
2022/11/17 00:54:46;;;;;;;24.20;14.10;;;7.50;99.90;;;;;;6275571;22;20023;-86
2022/11/17 00:57:11;;;;;;;24.33;14.10;;;7.70;99.90;;;;;;6276915;22;20320;-86
2022/11/17 00:59:37;;;;;;;26.03;14.27;;;7.50;99.90;;;;;;6280946;22;20019;-86
2022/11/17 01:02:18;;;;;;;23.13;13.37;;;7.60;99.90;;;;;;6288563;22;20012;-86
2022/11/17 01:04:58;;;;;;;21.50;12.97;;;8.50;99.90;;;;;;6277720;22;20011;-86
2022/11/17 01:07:27;;;;;;;22.17;13.57;;;7.70;99.90;;;;;;6273921;22;20020;-86
2022/11/17 01:09:53;;;;;;;23.93;13.97;;;7.80;99.90;;;;;;6276991;22;20019;-86
2022/11/17 01:12:18;;;;;;;24.03;13.50;;;7.90;99.90;;;;;;6276863;22;20515;-87
2022/11/17 01:14:44;;;;;;;22.10;12.33;;;6.90;99.90;;;;;;6274150;22;20498;-86
2022/11/17 01:17:22;;;;;;;22.70;13.40;;;7.60;99.90;;;;;;6275932;22;20019;-86
2022/11/17 01:19:48;;;;;;;24.53;13.57;;;7.60;99.90;;;;;;6275287;22;20011;-87
2022/11/17 01:22:13;;;;;;;23.13;13.75;;;7.60;99.90;;;;;;6273706;22;20016;-86
2022/11/17 01:24:39;;;;;;;22.87;13.90;;;7.60;99.90;;;;;;6274906;22;20076;-86
2022/11/17 01:27:13;;;;;;;23.63;12.93;;;8.30;99.90;;;;;;6278724;22;20024;-85
2022/11/17 01:29:39;;;;;;;21.27;12.25;;;7.60;99.90;;;;;;6275989;22;20047;-87
2022/11/17 01:32:13;;;;;;;23.52;12.70;;;8.50;99.90;;;;;;6276743;22;20012;-86
2022/11/17 01:34:38;;;;;;;;;;;8.70;99.90;;;;;;6277750;22;20016;-86
2022/11/17 01:37:19;;;;;;;20.37;12.13;;;8.80;99.90;;;;;;6291700;22;19971;-86
2022/11/17 01:39:51;;;;;;;21.20;12.77;;;7.60;99.90;;;;;;6275427;22;20756;-86
2022/11/17 01:42:26;;;;;;;20.83;12.30;;;8.50;99.90;;;;;;6274538;22;20016;-86
2022/11/17 01:45:13;;;;;;;19.50;11.73;;;7.10;99.90;;;;;;6276776;22;20090;-86
2022/11/17 01:47:48;;;;;;;22.37;11.73;;;7.50;99.90;;;;;;6275278;22;20015;-87
2022/11/17 01:50:23;;;;;;;21.60;12.17;;;7.80;99.90;;;;;;6275778;22;20057;-87
2022/11/17 01:53:44;;;;;;;21.30;11.67;;;9.10;99.90;;;;;;6274016;22;20016;-86
2022/11/17 01:56:37;;;;;;;20.53;11.60;;;7.80;99.90;;;;;;6273653;22;20114;-86
2022/11/17 01:59:15;;;;;;;22.65;12.05;;;7.80;99.90;;;;;;6276545;22;20087;-87
2022/11/17 02:01:54;;;;;;;19.65;11.27;;;7.80;99.90;;;;;;6274700;22;20055;-87
2022/11/17 02:04:37;;;;;;;22.13;12.10;;;8.80;99.90;;;;;;6273545;22;20023;-86
2022/11/17 02:07:29;;;;;;;20.67;11.57;;;8.60;99.90;;;;;;6274812;22;20037;-86
2022/11/17 02:09:55;;;;;;;19.13;11.20;;;7.90;99.90;;;;;;6274423;22;20012;-86
2022/11/17 02:12:24;;;;;;;20.53;11.60;;;7.90;99.90;;;;;;6280009;22;20578;-87
2022/11/17 02:14:51;;;;;;;21.20;11.60;;;7.90;99.90;;;;;;6279708;22;20015;-87
2022/11/17 02:17:23;;;;;;;19.93;11.80;;;7.90;99.90;;;;;;6299902;22;20026;-86
2022/11/17 02:20:11;;;;;;;24.33;12.20;;;8.40;99.90;;;;;;6274183;22;20003;-87
2022/11/17 02:22:51;;;;;;;21.87;12.33;;;7.90;99.90;;;;;;6276290;22;20075;-86
2022/11/17 02:25:44;;;;;;;;;;;;;;;;;;;;;
2022/11/17 02:28:25;;;;;;;24.17;12.40;;;7.80;99.90;;;;;;6277384;22;20329;-86
2022/11/17 02:31:12;;;;;;;22.43;12.23;;;7.60;99.90;;;;;;6275137;22;20517;-86
2022/11/17 02:34:03;;;;;;;21.57;13.20;;;7.80;99.90;;;;;;6273305;22;20028;-85
2022/11/17 02:36:46;;;;;;;24.83;13.70;;;7.70;99.90;;;;;;6279536;22;20373;-86
2022/11/17 02:39:17;;;;;;;25.10;13.20;;;7.60;99.90;;;;;;6273868;22;20043;-85
2022/11/17 02:42:14;;;;;;;22.23;13.30;;;7.60;99.90;;;;;;6276060;22;20019;-85
2022/11/17 02:44:59;;;;;;;25.23;13.67;;;7.60;99.90;;;;;;6274531;22;20521;-85
2022/11/17 02:47:31;;;;;;;25.10;12.83;;;7.60;99.90;;;;;;6282766;22;20057;-85
2022/11/17 02:50:05;;;;;;;26.70;13.30;;;7.50;99.90;;;;;;6319373;22;20087;-84
2022/11/17 02:52:30;;;;;;;25.00;13.10;;;7.50;99.90;;;;;;6286208;22;20098;-85
2022/11/17 02:55:00;;;;;;;24.70;13.63;;;7.40;99.90;;;;;;6274120;22;20046;-86
2022/11/17 02:57:40;;;;;;;25.27;14.23;;;7.50;99.90;;;;;;6274102;22;20015;-85
2022/11/17 03:00:10;;;;;;;23.07;13.73;;;7.40;99.90;;;;;;6273624;22;20054;-86
2022/11/17 03:03:13;;;;;;;24.93;13.50;;;7.40;99.90;;;;;;6276578;22;20018;-86
2022/11/17 03:06:10;;;;;;;26.20;13.97;;;7.40;99.90;;;;;;6278159;22;20057;-86
2022/11/17 03:09:24;;;;;;;24.50;13.03;;;6.90;99.90;;;;;;6278586;22;20011;-86
2022/11/17 03:12:05;;;;;;;24.30;13.23;;;7.40;99.90;;;;;;6127592;23;20088;-86
2022/11/17 03:15:10;;;;;;;23.53;12.97;;;7.40;99.90;;;;;;6126815;23;20056;-87
2022/11/17 03:17:48;;;;;;;24.27;13.47;;;7.40;99.90;;;;;;6139771;23;20018;-87
2022/11/17 03:21:09;;;;;;;26.07;13.77;;;7.40;99.90;;;;;;6152571;23;20021;-86
2022/11/17 03:23:48;;;;;;;22.10;12.63;;;7.30;99.90;;;;;;6160329;23;20018;-87
2022/11/17 03:26:21;;;;;;;23.10;12.10;;;8.50;99.90;;;;;;6318970;22;20023;-87
2022/11/17 03:28:47;;;;;;;21.17;12.07;;;7.30;99.90;;;;;;6281102;22;20384;-88
2022/11/17 03:31:15;;;;;;;22.83;11.80;;;7.20;99.90;;;;;;6281230;22;20339;-87
2022/11/17 03:33:43;;;;;;;26.57;13.00;;;7.20;99.90;;;;;;6308702;22;20396;-86
2022/11/17 03:36:15;;;;;;;26.77;12.43;;;7.20;99.90;;;;;;6280145;22;20015;-87
2022/11/17 03:38:50;;;;;;;24.37;12.90;;;7.10;99.90;;;;;;6309238;22;20019;-87
2022/11/17 03:41:18;;;;;;;24.80;12.60;;;7.10;99.90;;;;;;6280798;22;20069;-87
2022/11/17 03:43:48;;;;;;;23.00;12.10;;;7.10;99.90;;;;;;6308267;22;20065;-87
2022/11/17 03:46:16;;;;;;;26.90;13.03;;;7.10;99.90;;;;;;6308928;22;20021;-88
2022/11/17 03:48:57;;;;;;;23.47;12.97;;;7.10;99.90;;;;;;6281806;22;20020;-88
2022/11/17 03:51:26;;;;;;;22.80;12.13;;;7.10;99.90;;;;;;6309009;22;20316;-88
2022/11/17 03:53:53;;;;;;;24.10;12.60;;;7.10;99.90;;;;;;6281399;22;20011;-88
2022/11/17 03:56:48;;;;;;;25.43;13.03;;;7.00;99.90;;;;;;6279889;22;20019;-88
2022/11/17 03:59:45;;;;;;;21.13;11.47;;;7.00;99.90;;;;;;6309087;22;20018;-88
2022/11/17 04:02:19;;;;;;;22.00;12.30;;;7.00;99.90;;;;;;6254160;22;20058;-88
2022/11/17 04:07:54;;;;;;;22.00;11.73;;;6.00;99.90;;;;;;6308549;22;20112;-88
2022/11/17 04:15:54;;;;;;;21.33;11.93;;;7.10;99.90;;;;;;6280229;22;20041;-88
2022/11/17 04:16:55;;;;;;;21.63;11.90;;;6.90;99.90;;;;;;6307317;22;20030;-89
2022/11/17 04:19:20;;;;;;;23.50;11.97;;;7.10;99.90;;;;;;6307499;22;20053;-88
2022/11/17 04:22:02;;;;;;;22.17;11.73;;;7.30;99.90;;;;;;6305215;22;20504;-87
2022/11/17 04:24:34;;;;;;;23.83;12.82;;;7.00;99.90;;;;;;6280299;22;20011;-87
2022/11/17 04:30:15;;;;;;;25.13;11.85;;;5.50;99.90;;;;;;6308403;22;20023;-88
2022/11/17 04:32:52;;;;;;;22.45;11.85;;;6.80;99.90;;;;;;6280268;22;20031;-88
2022/11/17 04:35:18;;;;;;;19.80;11.70;;;7.90;99.90;;;;;;6282603;22;20076;-88
2022/11/17 04:37:44;;;;;;;21.17;11.45;;;7.30;99.90;;;;;;6282908;22;20023;-88
2022/11/17 04:40:24;;;;;;;20.97;10.73;;;6.90;99.90;;;;;;6280283;22;20019;-87
2022/11/17 04:42:56;;;;;;;21.33;11.10;;;6.90;99.90;;;;;;6308630;22;20011;-88
2022/11/17 04:45:34;;;;;;;18.90;10.48;;;6.80;99.90;;;;;;6307441;22;20026;-88
2022/11/17 04:48:15;;;;;;;20.20;10.73;;;7.40;99.90;;;;;;6308340;22;20022;-88
2022/11/17 04:50:53;;;;;;;19.00;10.68;;;6.60;99.90;;;;;;6308480;22;20015;-88
2022/11/17 04:53:28;;;;;;;19.17;10.57;;;6.90;99.90;;;;;;6279506;22;20019;-88
2022/11/17 04:56:12;;;;;;;18.50;9.47;;;6.60;99.90;;;;;;6280289;22;20050;-88
2022/11/17 04:58:53;;;;;;;18.67;11.02;;;6.80;99.90;;;;;;6281049;22;20016;-88
2022/11/17 05:01:37;;;;;;;19.40;10.98;;;6.50;99.90;;;;;;6307025;22;20132;-88
2022/11/17 05:07:18;;;;;;;21.35;11.10;;;7.60;99.90;;;;;;6285932;22;20019;-88
2022/11/17 05:09:55;;;;;;;20.38;10.32;;;7.30;99.90;;;;;;6288650;22;20019;-88
2022/11/17 05:18:47;;;;;;;20.07;10.30;;;6.60;99.90;;;;;;6307982;22;20050;-88
2022/11/17 05:21:25;;;;;;;16.43;9.33;;;6.50;99.90;;;;;;6306941;22;20023;-88
2022/11/17 05:23:53;;;;;;;18.47;10.30;;;7.60;99.90;;;;;;6308429;22;20372;-88
2022/11/17 05:26:30;;;;;;;18.20;9.80;;;7.40;99.90;;;;;;6279888;22;20015;-88
2022/11/17 05:29:10;;;;;;;18.57;9.80;;;6.10;99.90;;;;;;6307534;22;20019;-88
2022/11/17 05:31:50;;;;;;;18.97;10.67;;;6.20;99.90;;;;;;6282184;22;20011;-88
2022/11/17 05:34:24;;;;;;;18.97;10.37;;;6.20;99.90;;;;;;6280251;22;20072;-87
2022/11/17 05:36:50;;;;;;;17.50;9.33;;;6.50;99.90;;;;;;6280572;22;20015;-87
2022/11/17 05:39:24;;;;;;;18.50;9.77;;;6.10;99.90;;;;;;6279717;22;20325;-87
2022/11/17 05:42:05;;;;;;;18.33;9.73;;;6.70;99.90;;;;;;6314955;22;20374;-87
2022/11/17 05:44:47;;;;;;;18.17;10.47;;;6.00;99.90;;;;;;6282784;22;20007;-88
2022/11/17 05:47:30;;;;;;;18.90;10.33;;;6.90;99.90;;;;;;6331958;22;20007;-88
2022/11/17 05:50:21;;;;;;;19.23;10.38;;;6.00;99.90;;;;;;6330101;22;20011;-87
2022/11/17 05:52:55;;;;;;;18.20;9.73;;;6.40;99.90;;;;;;6287418;22;20072;-87
2022/11/17 05:55:26;;;;;;;17.70;9.73;;;6.20;99.90;;;;;;6282086;22;20385;-87
2022/11/17 05:58:15;;;;;;;18.03;9.53;;;6.80;99.90;;;;;;6281490;22;20338;-87
2022/11/17 06:00:44;;;;;;;15.50;8.37;;;7.90;99.90;;;;;;6282543;22;20047;-87
2022/11/17 06:03:33;;;;;;;16.77;9.17;;;6.50;99.90;;;;;;6309130;22;20007;-87
2022/11/17 06:06:05;;;;;;;17.53;8.83;;;6.30;99.90;;;;;;6309269;22;20011;-87
2022/11/17 06:08:30;;;;;;;17.53;8.97;;;6.20;99.90;;;;;;6280453;22;20719;-88
2022/11/17 06:11:02;;;;;;;17.43;9.53;;;6.30;99.90;;;;;;6306215;22;20086;-89
2022/11/17 06:13:34;;;;;;;18.47;9.73;;;6.20;99.90;;;;;;6279815;22;20447;-88
2022/11/17 06:16:15;;;;;;;17.67;9.20;;;7.90;99.90;;;;;;6274842;22;20019;-87
2022/11/17 06:19:05;;;;;;;16.90;9.07;;;6.80;99.90;;;;;;6275535;22;20087;-88
2022/11/17 06:21:33;;;;;;;17.43;9.30;;;6.50;99.90;;;;;;6275883;22;20020;-88
2022/11/17 06:24:08;;;;;;;28.03;9.43;;;6.10;99.90;;;;;;6280336;22;20110;-88
2022/11/17 06:26:43;;;;;;;16.20;8.63;;;6.10;99.90;;;;;;6274640;22;20016;-88
2022/11/17 06:31:52;;;;;;;17.30;9.63;;;6.20;99.90;;;;;;6213609;22;20024;-87
2022/11/17 06:34:31;;;;;;;16.70;9.30;;;6.10;99.90;;;;;;6215003;23;20019;-88
2022/11/17 06:37:10;;;;;;;18.23;9.10;;;5.60;99.90;;;;;;6215329;23;20086;-87
2022/11/17 06:39:45;;;;;;;17.80;8.90;;;6.20;99.90;;;;;;6187450;23;20044;-87
2022/11/17 06:43:02;;;;;;;16.67;8.77;;;6.50;99.90;;;;;;6188686;23;20470;-88
2022/11/17 06:46:03;;;;;;;17.40;9.37;;;5.90;99.90;;;;;;6211336;23;20021;-87
2022/11/17 06:48:47;;;;;;;17.90;8.57;;;6.30;99.90;;;;;;6163959;23;20016;-88
2022/11/17 06:51:18;;;;;;;16.60;9.00;;;6.20;99.90;;;;;;6245635;23;20079;-88
2022/11/17 06:53:56;;;;;;;15.87;8.93;;;5.70;99.90;;;;;;6217673;23;20444;-88
2022/11/17 06:56:34;;;;;;;16.00;9.07;;;5.70;99.90;;;;;;6223004;23;20034;-87
2022/11/17 06:59:06;;;;;;;14.97;8.53;;;6.20;99.90;;;;;;6221769;23;20013;-88
2022/11/17 07:01:42;;;;;;;15.47;8.13;;;5.80;99.90;;;;;;6222185;23;20094;-87
2022/11/17 07:04:20;;;;;;;15.83;8.87;;;7.20;99.90;;;;;;6222346;23;20095;-86
2022/11/17 07:06:45;;;;;;;14.97;7.70;;;6.30;99.90;;;;;;6224759;23;20024;-87
2022/11/17 07:09:24;;;;;;;15.17;7.60;;;7.50;99.90;;;;;;6184247;23;20055;-87
2022/11/17 07:12:08;;;;;;;14.60;8.00;;;7.30;99.90;;;;;;6159595;23;20021;-87
2022/11/17 07:14:43;;;;;;;17.20;8.90;;;6.50;99.90;;;;;;6159001;23;20013;-88
2022/11/17 07:17:30;;;;;;;15.17;8.53;;;6.00;99.90;;;;;;6164763;23;20024;-85
2022/11/17 07:20:09;;;;;;;15.63;8.53;;;6.50;99.90;;;;;;6159303;23;20041;-84
2022/11/17 07:22:43;;;;;;;15.77;7.87;;;6.10;99.90;;;;;;6184713;23;20009;-84
2022/11/17 07:25:28;;;;;;;16.80;8.27;;;6.20;99.90;;;;;;6165541;23;20021;-84
2022/11/17 07:28:05;;;;;;;15.10;7.57;;;5.80;99.90;;;;;;6159562;23;20104;-86
2022/11/17 07:30:35;;;;;;;13.87;7.60;;;5.70;99.90;;;;;;6171086;23;20154;-85
2022/11/17 07:33:10;;;;;;;14.80;7.73;;;6.70;99.90;;;;;;6214688;23;20059;-85
2022/11/17 07:35:48;;;;;;;17.30;8.27;;;7.60;99.90;;;;;;6187590;23;20020;-85
2022/11/17 07:38:32;;;;;;;14.93;7.90;;;7.10;99.90;;;;;;6188777;23;20441;-85
2022/11/17 07:41:12;;;;;;;15.77;8.20;;;6.10;99.90;;;;;;6240708;23;20456;-84
2022/11/17 07:44:00;;;;;;;15.77;8.20;;;5.80;99.90;;;;;;6246865;23;20016;-84
2022/11/17 07:47:06;;;;;;;15.80;8.40;;;6.10;99.90;;;;;;6246899;23;20031;-86
2022/11/17 07:49:47;;;;;;;15.73;7.77;;;6.30;99.90;;;;;;6098696;23;20080;-86
2022/11/17 07:52:33;;;;;;;16.67;9.10;;;6.00;99.90;;;;;;6124258;23;20142;-84
2022/11/17 07:55:08;;;;;;;16.47;8.67;;;6.70;99.90;;;;;;6100036;23;20025;-86
2022/11/17 07:57:56;;;;;;;16.37;9.00;;;6.70;99.90;;;;;;6124408;23;20069;-85
2022/11/17 08:00:25;;;;;;;17.13;9.00;;;6.10;99.90;;;;;;6124269;23;20319;-86
2022/11/17 08:03:02;;;;;;;15.80;8.73;;;6.20;99.90;;;;;;6099368;23;20101;-83
2022/11/17 08:05:32;;;;;;;16.50;9.20;;;7.20;99.90;;;;;;6114436;23;20025;-85
2022/11/17 08:08:08;;;;;;;16.23;9.60;;;5.80;99.90;;;;;;6247081;23;20024;-85
2022/11/17 08:10:49;;;;;;;16.67;8.93;;;6.20;99.90;;;;;;6245936;23;20020;-85
2022/11/17 08:13:21;;;;;;;17.80;8.93;;;5.90;99.90;;;;;;6244684;23;20022;-84
2022/11/17 08:16:07;;;;;;;17.13;9.03;;;5.90;99.90;;;;;;6246854;23;20062;-85
2022/11/17 08:18:39;;;;;;;18.60;9.93;;;6.70;99.90;;;;;;6244241;23;20017;-83
2022/11/17 08:21:20;;;;;;;18.17;9.90;;;5.80;99.90;;;;;;6245517;23;20348;-84
2022/11/17 08:23:58;;;;;;;17.30;8.93;;;6.30;99.90;;;;;;6243510;23;20122;-85
2022/11/17 08:26:37;;;;;;;17.83;10.03;;;5.90;99.90;;;;;;6244308;23;20031;-83
2022/11/17 08:29:18;;;;;;;17.43;9.53;;;7.50;99.90;;;;;;6245305;23;20012;-85
2022/11/17 08:31:45;;;;;;;17.00;9.77;;;6.00;99.90;;;;;;6267869;22;20015;-85
2022/11/17 08:34:22;;;;;;;19.27;10.03;;;5.90;99.90;;;;;;6248347;22;20023;-85
2022/11/17 08:36:53;;;;;;;16.20;9.13;;;5.40;99.90;;;;;;6249726;22;20032;-86
2022/11/17 08:39:31;;;;;;;21.23;10.27;;;6.20;99.90;;;;;;6276267;22;20012;-85
2022/11/17 08:45:46;;;;;;;17.70;9.73;;;6.50;99.90;;;;;;6186078;22;20008;-87
2022/11/17 08:48:33;;;;;;;16.87;9.77;;;5.70;99.90;;;;;;6258065;22;20104;-87
2022/11/17 08:51:12;;;;;;;17.37;9.43;;;6.00;99.90;;;;;;6280455;22;20019;-86
2022/11/17 08:53:58;;;;;;;15.90;8.83;;;5.50;99.90;;;;;;6255387;22;20019;-86
2022/11/17 08:59:42;;;;;;;16.40;9.03;;;6.00;99.90;;;;;;6251188;22;20110;-86
2022/11/17 09:02:23;;;;;;;15.83;8.70;;;6.20;99.90;;;;;;6256876;22;20020;-85
2022/11/17 09:07:35;;;;;;;14.40;7.63;;;6.20;99.90;;;;;;6305776;22;20015;-86
2022/11/17 09:10:09;;;;;;;16.77;8.23;;;5.90;99.90;;;;;;6310367;22;20022;-85
2022/11/17 09:12:55;;;;;;;13.53;7.50;;;6.20;99.90;;;;;;6310549;22;20069;-86
2022/11/17 09:15:30;;;;;;;14.93;7.87;;;6.10;99.90;;;;;;6337272;22;20038;-85
2022/11/17 09:18:02;;;;;;;14.47;7.80;;;6.80;99.90;;;;;;6311359;22;20015;-86
2022/11/17 09:20:46;;;;;;;17.43;7.93;;;7.90;99.90;;;;;;6309705;22;20450;-86
2022/11/17 09:23:27;;;;;;;15.15;7.93;;;7.30;99.90;;;;;;6311638;22;20014;-86
2022/11/17 09:26:04;;;;;;;14.30;8.27;;;8.20;99.90;;;;;;6339481;22;20014;-84
2022/11/17 09:28:45;;;;;;;15.50;7.53;;;7.70;99.90;;;;;;6310224;22;20014;-85
2022/11/17 09:31:19;;;;;;;15.47;7.90;;;7.40;99.90;;;;;;6334169;22;20018;-84
2022/11/17 09:34:01;;;;;;;15.40;7.60;;;5.40;99.90;;;;;;6308735;22;20393;-88
2022/11/17 09:36:26;;;;;;;14.53;7.43;;;6.40;99.90;;;;;;6308663;22;20057;-83
2022/11/17 09:39:10;;;;;;;14.57;7.88;;;7.50;99.90;;;;;;6308748;22;20365;-83
2022/11/17 09:41:47;;;;;;;12.70;7.00;;;7.40;99.90;;;;;;6335836;22;20059;-83
2022/11/17 09:44:35;;;;;;;13.13;6.93;;;7.30;99.90;;;;;;6335875;22;20022;-85
2022/11/17 09:47:48;;;;;;;13.93;7.23;;;7.50;99.90;;;;;;6336343;22;20041;-84
2022/11/17 09:50:55;;;;;;;13.17;6.73;;;6.50;99.90;;;;;;6308536;22;20014;-84
2022/11/17 09:53:53;;;;;;;14.33;7.03;;;7.00;99.90;;;;;;6307386;22;20018;-84
2022/11/17 09:56:40;;;;;;;12.80;6.93;;;7.10;99.90;;;;;;6335218;22;20372;-83
2022/11/17 09:59:19;;;;;;;13.75;7.15;;;6.00;99.90;;;;;;6308983;22;20034;-83
2022/11/17 10:01:57;;;;;;;14.07;7.03;;;6.30;99.90;;;;;;6307526;22;20022;-84
2022/11/17 10:05:14;;;;;;;13.40;6.97;;;5.60;99.90;;;;;;6250844;22;1329524;-84
2022/11/17 10:09:09;;;;;;;13.47;6.70;;;6.50;99.90;;;;;;6301874;22;20696;-84
2022/11/17 10:11:38;;;;;;;13.67;7.40;;;5.70;99.90;;;;;;6309147;22;20504;-84
2022/11/17 10:14:21;;;;;;;14.38;7.65;;;7.00;99.90;;;;;;6332230;22;20388;-84
2022/11/17 10:17:03;;;;;;;15.07;7.03;;;6.20;99.90;;;;;;6310045;22;20018;-84
2022/11/17 10:19:50;;;;;;;14.77;7.67;;;6.10;99.90;;;;;;6310436;22;20082;-82
2022/11/17 10:22:44;;;;;;;12.90;6.97;;;6.00;99.90;;;;;;6310316;22;20072;-83
2022/11/17 10:25:53;;;;;;;13.60;6.93;;;6.70;99.90;;;;;;6309396;22;20065;-83
2022/11/17 10:28:42;;;;;;;14.00;6.97;;;6.60;99.90;;;;;;6310408;22;20101;-83
2022/11/17 10:31:23;;;;;;;12.53;6.53;;;6.30;99.90;;;;;;6334568;22;20034;-83
2022/11/17 10:34:01;;;;;;;12.87;6.70;;;6.30;99.90;;;;;;6311747;22;20011;-84
2022/11/17 10:36:32;;;;;;;12.83;6.87;;;6.00;99.90;;;;;;6314768;22;20072;-85
2022/11/17 10:39:47;;;;;;;12.30;6.20;;;5.30;99.90;;;;;;6342955;22;20015;-85
2022/11/17 10:42:43;;;;;;;12.40;6.63;;;5.70;99.90;;;;;;6337979;22;20509;-84
2022/11/17 10:45:22;;;;;;;13.13;6.30;;;6.60;99.90;;;;;;6309547;22;20523;-83
2022/11/17 10:48:06;;;;;;;13.30;6.77;;;6.30;99.90;;;;;;6338153;22;20046;-83
2022/11/17 10:50:57;;;;;;;11.83;6.07;;;6.10;99.90;;;;;;6309621;22;20011;-82
2022/11/17 10:53:43;;;;;;;12.87;6.70;;;6.00;99.90;;;;;;6309719;22;20019;-83
2022/11/17 10:56:44;;;;;;;12.70;6.37;;;6.60;99.90;;;;;;6309628;22;20347;-83
2022/11/17 11:01:54;;;;;;;12.93;6.53;;;6.80;99.90;;;;;;6336317;22;20021;-83
2022/11/17 11:04:35;;;;;;;12.80;6.43;;;6.90;99.90;;;;;;6309554;22;20072;-84
2022/11/17 11:07:25;;;;;;;12.77;6.70;;;6.40;99.90;;;;;;6309095;22;20023;-83
2022/11/17 11:10:30;;;;;;;11.53;6.20;;;6.10;99.90;;;;;;6337781;22;20014;-83
2022/11/17 11:13:19;;;;;;;13.27;6.77;;;6.80;99.90;;;;;;6309417;22;20106;-83
2022/11/17 11:16:21;;;;;;;13.60;6.77;;;6.50;99.90;;;;;;6332755;22;20072;-84
2022/11/17 11:19:02;;;;;;;12.27;6.17;;;8.00;99.90;;;;;;6311476;22;20007;-84
2022/11/17 11:22:01;;;;;;;13.67;7.00;;;6.70;99.90;;;;;;6309861;22;20037;-84
2022/11/17 11:24:54;;;;;;;13.27;6.77;;;6.80;99.90;;;;;;6310150;22;20021;-84
2022/11/17 11:27:42;;;;;;;13.93;7.03;;;6.80;99.90;;;;;;6308220;22;20054;-84
2022/11/17 11:30:32;;;;;;;12.67;7.10;;;6.70;99.90;;;;;;6310601;22;20028;-84
2022/11/17 11:33:19;;;;;;;13.90;6.70;;;6.90;99.90;;;;;;6310519;22;20010;-84
2022/11/17 11:36:13;;;;;;;13.90;6.83;;;6.80;99.90;;;;;;6310002;22;20022;-83
2022/11/17 11:42:27;;;;;;;15.00;6.57;;;6.90;99.90;;;;;;6329012;22;20476;-86
2022/11/17 11:48:51;;;;;;;13.53;6.97;;;7.10;99.90;;;;;;6312682;22;20013;-88
2022/11/17 11:51:46;;;;;;;;;;;;;;;;;;;;;
2022/11/17 11:58:29;;;;;;;15.20;7.30;;;7.80;99.90;;;;;;6243009;22;20442;-89
2022/11/17 12:01:20;;;;;;;15.27;8.40;;;6.70;99.90;;;;;;6182225;23;20071;-90
2022/11/17 12:10:59;;;;;;;;;;;;;;;;;;;;;
2022/11/17 12:20:29;;;;;;;16.13;8.60;;;7.60;99.90;;;;;;6284066;22;20030;-90
2022/11/17 12:23:29;;;;;;;18.67;9.40;;;7.80;99.90;;;;;;6196021;23;20032;-90
2022/11/17 12:26:25;;;;;;;16.60;9.07;;;7.80;99.90;;;;;;6280899;22;20141;-90
2022/11/17 12:33:07;;;;;;;18.43;10.47;;;6.90;99.90;;;;;;6281299;22;20016;-87
2022/11/17 12:40:03;;;;;;;18.83;9.90;;;8.10;99.90;;;;;;6283486;22;20072;-88
2022/11/17 12:46:46;;;;;;;16.87;8.90;;;8.60;99.90;;;;;;6216241;23;20016;-88
2022/11/17 12:49:59;;;;;;;18.63;9.23;;;8.10;99.90;;;;;;6113399;23;20026;-88
2022/11/17 12:52:42;;;;;;;;;;;7.50;99.90;;;;;;6218552;23;20012;-88
2022/11/17 12:55:50;;;;;;;16.25;8.93;;;8.10;99.90;;;;;;6218802;23;20327;-88
2022/11/17 12:58:37;;;;;;;16.63;9.07;;;9.80;99.90;;;;;;6224170;23;20123;-88
2022/11/17 13:01:24;;;;;;;20.37;9.70;;;8.20;99.90;;;;;;6218962;23;20017;-89
2022/11/17 13:04:32;;;;;;;17.00;9.00;;;8.30;99.90;;;;;;6219046;23;20448;-89
2022/11/17 13:07:39;;;;;;;16.57;9.10;;;8.20;99.90;;;;;;6158342;23;20021;-89
2022/11/17 13:10:40;;;;;;;15.13;8.70;;;8.30;99.90;;;;;;6189424;22;20103;-89
2022/11/17 13:13:23;;;;;;;16.03;8.17;;;8.40;99.90;;;;;;6188392;23;20021;-89
2022/11/17 13:16:46;;;;;;;15.73;8.53;;;9.10;99.90;;;;;;6189367;23;20013;-88
2022/11/17 13:19:34;;;;;;;14.57;7.57;;;7.90;99.90;;;;;;6184100;23;20013;-89
2022/11/17 13:22:25;;;;;;;;;;;;;;;;;;;;;
2022/11/17 13:25:54;;;;;;;15.10;8.20;;;8.20;99.90;;;;;;6209665;22;20066;-88
2022/11/17 13:28:45;;;;;;;13.67;7.83;;;7.30;99.90;;;;;;6245868;23;20020;-89
2022/11/17 13:31:32;;;;;;;14.10;7.90;;;8.10;99.90;;;;;;6244594;23;20515;-88
2022/11/17 13:34:22;;;;;;;14.40;7.97;;;9.80;99.90;;;;;;6248603;23;20165;-88
2022/11/17 13:36:59;;;;;;;13.47;7.70;;;8.00;99.90;;;;;;6244627;23;20016;-88
2022/11/17 13:40:14;;;;;;;13.63;7.73;;;9.90;99.90;;;;;;6246598;23;20020;-88
2022/11/17 13:42:57;;;;;;;17.43;8.80;;;8.20;99.90;;;;;;6224733;23;20016;-90
2022/11/17 13:45:44;;;;;;;15.40;8.50;;;7.60;99.90;;;;;;6247607;23;20008;-88
2022/11/17 13:48:51;;;;;;;15.13;8.57;;;9.20;99.90;;;;;;6220097;23;20048;-88
2022/11/17 13:52:06;;;;;;;15.23;8.60;;;7.90;99.90;;;;;;6224532;23;20075;-88
2022/11/17 13:54:54;;;;;;;15.57;8.50;;;7.70;99.90;;;;;;6217852;23;20016;-88
2022/11/17 13:58:08;;;;;;;15.77;8.95;;;6.80;99.90;;;;;;6244566;23;20051;-89
2022/11/17 14:00:54;;;;;;;18.63;9.30;;;7.70;99.90;;;;;;6246788;23;20016;-88
2022/11/17 14:04:05;;;;;;;14.97;8.27;;;8.10;99.90;;;;;;6238774;22;20082;-87
2022/11/17 14:07:18;;;;;;;16.00;8.73;;;8.40;99.90;;;;;;6182870;23;20021;-87
2022/11/17 14:09:44;;;;;;;19.08;9.60;;;8.00;99.90;;;;;;6186890;23;20017;-87
2022/11/17 14:12:27;;;;;;;14.63;9.47;;;7.30;99.90;;;;;;6219177;23;20062;-89
2022/11/17 14:16:02;;;;;;;15.23;9.10;;;8.30;99.90;;;;;;6249870;23;20365;-88
2022/11/17 14:18:36;;;;;;;14.82;8.77;;;7.50;99.90;;;;;;6157567;23;20442;-87
2022/11/17 14:21:17;;;;;;;15.70;8.77;;;7.40;99.90;;;;;;6183479;23;20024;-88
2022/11/17 14:24:23;;;;;;;15.93;9.47;;;7.80;99.90;;;;;;6159936;23;20021;-88
2022/11/17 14:27:12;;;;;;;16.33;9.47;;;7.90;99.90;;;;;;6158435;23;20035;-88
2022/11/17 14:29:55;;;;;;;17.17;9.07;;;8.20;99.90;;;;;;6181819;23;20049;-88
2022/11/17 14:32:21;;;;;;;17.15;9.30;;;8.00;99.90;;;;;;6157377;23;20016;-88
2022/11/17 14:35:11;;;;;;;16.77;9.20;;;7.60;99.90;;;;;;6184571;23;20341;-87
2022/11/17 14:37:53;;;;;;;17.20;9.23;;;7.70;99.90;;;;;;6157563;23;20013;-87
2022/11/17 14:40:37;;;;;;;16.75;9.13;;;8.00;99.90;;;;;;6179981;23;20024;-88
2022/11/17 14:43:09;;;;;;;16.92;9.35;;;8.90;99.90;;;;;;6182032;23;20028;-89
2022/11/17 14:45:41;;;;;;;15.88;9.30;;;7.60;99.90;;;;;;6185170;23;20028;-86
2022/11/17 14:48:43;;;;;;;16.43;9.40;;;8.30;99.90;;;;;;6192277;23;20044;-88
2022/11/17 14:51:27;;;;;;;14.67;9.17;;;7.40;99.90;;;;;;6245096;23;20078;-87
2022/11/17 14:53:56;;;;;;;19.00;10.13;;;7.30;99.90;;;;;;6244349;23;20020;-87
2022/11/17 14:56:41;;;;;;;15.67;9.07;;;9.10;99.90;;;;;;6218655;23;20066;-87
2022/11/17 14:59:10;;;;;;;17.70;9.50;;;9.30;99.90;;;;;;6218224;23;20508;-88
2022/11/17 15:01:46;;;;;;;18.77;9.90;;;7.70;99.90;;;;;;6216766;22;20058;-88
2022/11/17 15:04:20;;;;;;;17.47;10.00;;;8.00;99.90;;;;;;6244429;22;20344;-88
2022/11/17 15:06:52;;;;;;;17.27;8.90;;;7.60;99.90;;;;;;6244481;23;20027;-89
2022/11/17 15:09:19;;;;;;;16.60;9.73;;;8.60;99.90;;;;;;6243763;23;20051;-87
2022/11/17 15:11:51;;;;;;;17.73;9.70;;;8.30;99.90;;;;;;6244439;23;20095;-87
2022/11/17 15:14:16;;;;;;;15.68;9.25;;;7.70;99.90;;;;;;6243471;23;20071;-88
2022/11/17 15:17:03;;;;;;;17.55;9.55;;;7.50;99.90;;;;;;6243795;23;20020;-88
2022/11/17 15:19:36;;;;;;;18.03;9.63;;;7.30;99.90;;;;;;6254162;23;20048;-88